createdAt,value
2018-12-25T00:00:49.243Z,15.73
2018-12-25T00:01:51.436Z,15.74
2018-12-25T00:02:53.477Z,15.73
2018-12-25T00:03:55.754Z,15.73
2018-12-25T00:04:57.723Z,15.73
2018-12-25T00:05:59.683Z,15.73
2018-12-25T00:07:01.710Z,15.73
2018-12-25T00:08:03.767Z,15.74
2018-12-25T00:09:06.030Z,15.74
2018-12-25T00:10:08.029Z,15.74
2018-12-25T00:11:09.979Z,15.75
2018-12-25T00:12:12.316Z,15.75
2018-12-25T00:13:14.278Z,15.74
2018-12-25T00:14:16.264Z,15.73
2018-12-25T00:15:18.210Z,15.75
2018-12-25T00:16:20.159Z,15.73
2018-12-25T00:17:22.530Z,15.75
2018-12-25T00:18:24.735Z,15.74
2018-12-25T00:19:26.753Z,15.74
2018-12-25T00:20:28.889Z,15.74
2018-12-25T00:21:30.826Z,15.74
2018-12-25T00:22:33.112Z,15.74
2018-12-25T00:23:35.326Z,15.75
2018-12-25T00:24:37.259Z,15.74
2018-12-25T00:25:39.191Z,15.75
2018-12-25T00:26:41.120Z,15.75
2018-12-25T00:27:43.530Z,15.74
2018-12-25T00:28:45.814Z,15.73
2018-12-25T00:29:47.759Z,15.75
2018-12-25T00:30:49.717Z,15.75
2018-12-25T00:31:51.651Z,15.76
2018-12-25T00:32:53.600Z,15.74
2018-12-25T00:33:55.931Z,15.75
2018-12-25T00:34:57.870Z,15.76
2018-12-25T00:35:59.796Z,15.76
2018-12-25T00:37:01.745Z,15.76
2018-12-25T00:38:06.046Z,15.75
2018-12-25T00:39:08.022Z,15.76
2018-12-25T00:40:09.956Z,15.75
2018-12-25T00:41:11.893Z,15.75
2018-12-25T00:42:13.829Z,15.76
2018-12-25T00:43:15.779Z,15.76
2018-12-25T00:44:18.175Z,15.75
2018-12-25T00:45:20.114Z,15.75
2018-12-25T00:46:22.058Z,15.77
2018-12-25T00:47:24.014Z,15.76
2018-12-25T00:48:25.961Z,15.77
2018-12-25T00:49:28.232Z,15.76
2018-12-25T00:50:30.176Z,15.76
2018-12-25T00:51:32.099Z,15.76
2018-12-25T00:52:34.038Z,15.76
2018-12-25T00:53:35.990Z,15.75
2018-12-25T00:54:38.392Z,15.75
2018-12-25T00:55:40.389Z,15.75
2018-12-25T00:56:42.346Z,15.74
2018-12-25T00:57:44.347Z,15.75
2018-12-25T00:58:46.298Z,15.76
2018-12-25T00:59:48.344Z,15.77
2018-12-25T01:00:50.713Z,15.75
2018-12-25T01:01:52.650Z,15.76
2018-12-25T01:02:54.584Z,15.75
2018-12-25T01:03:56.517Z,15.76
2018-12-25T01:04:58.486Z,15.75
2018-12-25T01:06:00.639Z,15.76
2018-12-25T01:07:02.587Z,15.76
2018-12-25T01:08:04.518Z,15.77
2018-12-25T01:09:06.488Z,15.76
2018-12-25T01:10:08.524Z,15.76
2018-12-25T01:11:10.744Z,15.77
2018-12-25T01:12:15.795Z,15.77
2018-12-25T01:13:17.720Z,15.77
2018-12-25T01:14:19.659Z,15.76
2018-12-25T01:15:22.052Z,15.76
2018-12-25T01:16:24.089Z,15.77
2018-12-25T01:17:26.030Z,15.78
2018-12-25T01:18:27.982Z,15.77
2018-12-25T01:19:29.989Z,15.77
2018-12-25T01:20:32.204Z,15.76
2018-12-25T01:21:34.238Z,15.77
2018-12-25T01:22:36.172Z,15.78
2018-12-25T01:23:38.110Z,15.78
2018-12-25T01:24:40.043Z,15.77
2018-12-25T01:25:42.008Z,15.76
2018-12-25T01:26:44.288Z,15.76
2018-12-25T01:27:46.286Z,15.77
2018-12-25T01:28:48.295Z,15.77
2018-12-25T01:29:50.236Z,15.77
2018-12-25T01:30:52.198Z,15.77
2018-12-25T01:31:54.157Z,15.76
2018-12-25T01:32:56.098Z,15.77
2018-12-25T01:33:58.025Z,15.77
2018-12-25T01:34:59.974Z,15.76
2018-12-25T01:36:02.091Z,15.77
2018-12-25T01:37:04.033Z,15.77
2018-12-25T01:38:05.974Z,15.77
2018-12-25T01:39:07.924Z,15.77
2018-12-25T01:40:09.926Z,15.77
2018-12-25T01:41:11.974Z,15.77
2018-12-25T01:42:14.198Z,15.77
2018-12-25T01:43:16.230Z,15.77
2018-12-25T01:44:18.175Z,15.78
2018-12-25T01:45:20.167Z,15.78
2018-12-25T01:46:22.136Z,15.78
2018-12-25T01:47:24.075Z,15.78
2018-12-25T01:48:26.091Z,15.78
2018-12-25T01:49:31.772Z,15.77
2018-12-25T01:50:31.708Z,15.78
2018-12-25T01:51:33.785Z,15.78
2018-12-25T01:52:35.774Z,15.77
2018-12-25T01:53:37.719Z,15.77
2018-12-25T01:54:39.642Z,15.77
2018-12-25T01:55:41.680Z,15.78
2018-12-25T01:56:43.706Z,15.77
2018-12-25T01:57:45.653Z,15.77
2018-12-25T01:58:47.662Z,15.78
2018-12-25T01:59:49.588Z,15.79
2018-12-25T02:00:51.547Z,15.78
2018-12-25T02:01:53.516Z,15.78
2018-12-25T02:02:55.458Z,15.78
2018-12-25T02:03:57.391Z,15.78
2018-12-25T02:04:59.342Z,15.78
2018-12-25T02:06:01.288Z,15.77
2018-12-25T02:07:03.264Z,15.78
2018-12-25T02:08:05.268Z,15.79
2018-12-25T02:09:07.213Z,15.79
2018-12-25T02:10:09.152Z,15.79
2018-12-25T02:11:11.097Z,15.80
2018-12-25T02:12:13.061Z,15.79
2018-12-25T02:13:14.997Z,15.78
2018-12-25T02:14:16.941Z,15.78
2018-12-25T02:15:22.512Z,15.79
2018-12-25T02:16:24.458Z,15.78
2018-12-25T02:17:26.432Z,15.78
2018-12-25T02:18:28.389Z,15.78
2018-12-25T02:19:30.330Z,15.78
2018-12-25T02:20:32.269Z,15.78
2018-12-25T02:21:34.206Z,15.79
2018-12-25T02:22:36.186Z,15.78
2018-12-25T02:23:38.605Z,15.79
2018-12-25T02:24:40.625Z,15.78
2018-12-25T02:25:42.555Z,15.79
2018-12-25T02:26:44.503Z,15.78
2018-12-25T02:27:46.481Z,15.78
2018-12-25T02:28:48.409Z,15.77
2018-12-25T02:29:50.340Z,15.78
2018-12-25T02:30:52.290Z,15.78
2018-12-25T02:31:54.232Z,15.78
2018-12-25T02:32:56.198Z,15.78
2018-12-25T02:33:58.145Z,15.78
2018-12-25T02:35:00.177Z,15.78
2018-12-25T02:36:02.103Z,15.78
2018-12-25T02:37:04.055Z,15.79
2018-12-25T02:38:06.031Z,15.78
2018-12-25T02:39:08.041Z,15.79
2018-12-25T02:40:09.975Z,15.78
2018-12-25T02:41:11.907Z,15.78
2018-12-25T02:42:13.919Z,15.78
2018-12-25T02:43:15.881Z,15.78
2018-12-25T02:44:17.802Z,15.79
2018-12-25T02:45:19.750Z,15.78
2018-12-25T02:46:21.682Z,15.78
2018-12-25T02:47:23.635Z,15.78
2018-12-25T02:48:25.657Z,15.78
2018-12-25T02:49:27.986Z,15.78
2018-12-25T02:50:29.923Z,15.79
2018-12-25T02:51:31.855Z,15.79
2018-12-25T02:52:33.806Z,15.78
2018-12-25T02:53:35.833Z,15.79
2018-12-25T02:54:37.778Z,15.78
2018-12-25T02:55:39.714Z,15.79
2018-12-25T02:56:41.646Z,15.78
2018-12-25T02:57:43.588Z,15.79
2018-12-25T02:58:45.564Z,15.79
2018-12-25T02:59:47.566Z,15.79
2018-12-25T03:00:49.505Z,15.79
2018-12-25T03:01:51.447Z,15.80
2018-12-25T03:02:53.388Z,15.79
2018-12-25T03:03:55.360Z,15.80
2018-12-25T03:04:57.304Z,15.78
2018-12-25T03:05:59.236Z,15.79
2018-12-25T03:07:01.180Z,15.79
2018-12-25T03:08:03.120Z,15.79
2018-12-25T03:09:05.118Z,15.79
2018-12-25T03:10:07.145Z,15.79
2018-12-25T03:11:09.070Z,15.79
2018-12-25T03:12:11.016Z,15.79
2018-12-25T03:13:12.941Z,15.80
2018-12-25T03:14:14.883Z,15.79
2018-12-25T03:15:20.248Z,15.79
2018-12-25T03:16:22.191Z,15.80
2018-12-25T03:17:24.148Z,15.80
2018-12-25T03:18:26.270Z,15.79
2018-12-25T03:19:28.238Z,15.80
2018-12-25T03:20:30.198Z,15.80
2018-12-25T03:21:32.207Z,15.79
2018-12-25T03:22:34.154Z,15.80
2018-12-25T03:23:36.090Z,15.79
2018-12-25T03:24:38.155Z,15.79
2018-12-25T03:25:40.087Z,15.80
2018-12-25T03:26:42.092Z,15.79
2018-12-25T03:27:44.034Z,15.80
2018-12-25T03:28:45.968Z,15.79
2018-12-25T03:29:47.931Z,15.79
2018-12-25T03:30:49.875Z,15.79
2018-12-25T03:31:51.885Z,15.80
2018-12-25T03:32:53.835Z,15.80
2018-12-25T03:33:55.830Z,15.81
2018-12-25T03:34:57.867Z,15.79
2018-12-25T03:35:59.808Z,15.79
2018-12-25T03:37:01.822Z,15.79
2018-12-25T03:38:03.817Z,15.80
2018-12-25T03:39:05.861Z,15.79
2018-12-25T03:40:07.831Z,15.80
2018-12-25T03:41:09.833Z,15.80
2018-12-25T03:42:11.764Z,15.80
2018-12-25T03:43:13.720Z,15.81
2018-12-25T03:44:15.668Z,15.80
2018-12-25T03:45:17.636Z,15.81
2018-12-25T03:46:19.571Z,15.80
2018-12-25T03:47:21.511Z,15.80
2018-12-25T03:48:23.431Z,15.80
2018-12-25T03:49:25.451Z,15.80
2018-12-25T03:50:27.530Z,15.80
2018-12-25T03:51:29.541Z,15.80
2018-12-25T03:52:31.487Z,15.80
2018-12-25T03:53:33.502Z,15.80
2018-12-25T03:54:35.453Z,15.80
2018-12-25T03:55:37.438Z,15.80
2018-12-25T03:56:39.367Z,15.80
2018-12-25T03:57:41.332Z,15.81
2018-12-25T03:58:43.259Z,15.81
2018-12-25T03:59:45.196Z,15.81
2018-12-25T04:00:47.178Z,15.80
2018-12-25T04:01:49.130Z,15.81
2018-12-25T04:02:51.068Z,15.80
2018-12-25T04:03:52.994Z,15.80
2018-12-25T04:04:54.935Z,15.80
2018-12-25T04:05:56.952Z,15.80
2018-12-25T04:06:58.957Z,15.80
2018-12-25T04:08:00.896Z,15.81
2018-12-25T04:09:03.593Z,15.81
2018-12-25T04:10:05.595Z,15.80
2018-12-25T04:11:07.634Z,15.80
2018-12-25T04:12:09.571Z,15.81
2018-12-25T04:13:11.509Z,15.81
2018-12-25T04:14:14.578Z,15.80
2018-12-25T04:15:16.591Z,15.81
2018-12-25T04:16:18.558Z,15.81
2018-12-25T04:17:20.651Z,15.81
2018-12-25T04:18:22.628Z,15.80
2018-12-25T04:19:24.770Z,15.80
2018-12-25T04:20:26.709Z,15.80
2018-12-25T04:21:28.736Z,15.79
2018-12-25T04:22:30.677Z,15.81
2018-12-25T04:23:32.607Z,15.81
2018-12-25T04:24:34.539Z,15.82
2018-12-25T04:25:36.476Z,15.81
2018-12-25T04:26:38.436Z,15.81
2018-12-25T04:27:40.369Z,15.82
2018-12-25T04:28:42.314Z,15.81
2018-12-25T04:29:44.245Z,15.81
2018-12-25T04:30:46.188Z,15.82
2018-12-25T04:31:48.171Z,15.81
2018-12-25T04:32:50.113Z,15.81
2018-12-25T04:33:52.089Z,15.80
2018-12-25T04:34:54.078Z,15.82
2018-12-25T04:35:59.601Z,15.81
2018-12-25T04:37:01.562Z,15.81
2018-12-25T04:38:03.512Z,15.82
2018-12-25T04:39:05.516Z,15.82
2018-12-25T04:40:07.449Z,15.81
2018-12-25T04:41:09.370Z,15.81
2018-12-25T04:42:12.610Z,15.80
2018-12-25T04:43:14.561Z,15.81
2018-12-25T04:44:16.492Z,15.82
2018-12-25T04:45:18.441Z,15.81
2018-12-25T04:46:20.373Z,15.80
2018-12-25T04:47:22.336Z,15.80
2018-12-25T04:48:24.282Z,15.81
2018-12-25T04:49:26.212Z,15.81
2018-12-25T04:50:29.385Z,15.81
2018-12-25T04:51:31.864Z,15.82
2018-12-25T04:52:33.845Z,15.82
2018-12-25T04:53:35.854Z,15.82
2018-12-25T04:54:37.793Z,15.81
2018-12-25T04:55:39.743Z,15.81
2018-12-25T04:56:41.879Z,15.81
2018-12-25T04:57:43.842Z,15.82
2018-12-25T04:58:45.805Z,15.82
2018-12-25T04:59:47.751Z,15.82
2018-12-25T05:00:49.779Z,15.80
2018-12-25T05:01:51.797Z,15.81
2018-12-25T05:02:53.751Z,15.82
2018-12-25T05:03:55.666Z,15.82
2018-12-25T05:04:57.606Z,15.82
2018-12-25T05:05:59.547Z,15.80
2018-12-25T05:07:01.484Z,15.80
2018-12-25T05:08:03.546Z,15.81
2018-12-25T05:09:05.565Z,15.82
2018-12-25T05:10:07.503Z,15.81
2018-12-25T05:11:09.426Z,15.81
2018-12-25T05:12:12.629Z,15.82
2018-12-25T05:13:14.593Z,15.81
2018-12-25T05:14:16.526Z,15.82
2018-12-25T05:15:18.481Z,15.81
2018-12-25T05:16:20.411Z,15.80
2018-12-25T05:17:22.346Z,15.81
2018-12-25T05:18:24.321Z,15.80
2018-12-25T05:19:26.264Z,15.80
2018-12-25T05:20:28.271Z,15.81
2018-12-25T05:21:30.219Z,15.80
2018-12-25T05:22:32.160Z,15.81
2018-12-25T05:23:34.125Z,15.81
2018-12-25T05:24:36.066Z,15.81
2018-12-25T05:25:38.000Z,15.81
2018-12-25T05:26:40.171Z,15.81
2018-12-25T05:27:42.705Z,15.81
2018-12-25T05:28:44.681Z,15.81
2018-12-25T05:29:46.619Z,15.83
2018-12-25T05:30:48.563Z,15.83
2018-12-25T05:31:50.501Z,15.82
2018-12-25T05:32:52.451Z,15.81
2018-12-25T05:33:54.423Z,15.81
2018-12-25T05:34:56.392Z,15.82
2018-12-25T05:35:58.395Z,15.83
2018-12-25T05:37:00.406Z,15.82
2018-12-25T05:38:02.339Z,15.83
2018-12-25T05:39:04.925Z,15.82
2018-12-25T05:40:06.913Z,15.83
2018-12-25T05:41:08.939Z,15.83
2018-12-25T05:42:10.890Z,15.83
2018-12-25T05:43:12.832Z,15.83
2018-12-25T05:44:14.792Z,15.83
2018-12-25T05:45:16.735Z,15.82
2018-12-25T05:46:18.750Z,15.83
2018-12-25T05:47:20.683Z,15.84
2018-12-25T05:48:22.618Z,15.84
2018-12-25T05:49:24.597Z,15.84
2018-12-25T05:50:26.713Z,15.84
2018-12-25T05:51:28.648Z,15.84
2018-12-25T05:52:30.582Z,15.85
2018-12-25T05:53:33.823Z,15.85
2018-12-25T05:54:35.789Z,15.86
2018-12-25T05:55:37.723Z,15.86
2018-12-25T05:56:39.666Z,15.87
2018-12-25T05:57:41.604Z,15.88
2018-12-25T05:58:43.529Z,15.89
2018-12-25T05:59:45.497Z,15.90
2018-12-25T06:00:47.426Z,15.91
2018-12-25T06:01:49.394Z,15.91
2018-12-25T06:02:51.326Z,15.92
2018-12-25T06:03:53.254Z,15.91
2018-12-25T06:04:55.228Z,15.92
2018-12-25T06:05:57.166Z,15.92
2018-12-25T06:06:59.110Z,15.92
2018-12-25T06:08:01.062Z,15.93
2018-12-25T06:09:04.317Z,15.91
2018-12-25T06:10:06.283Z,15.92
2018-12-25T06:11:08.214Z,15.92
2018-12-25T06:12:13.742Z,15.93
2018-12-25T06:13:15.675Z,15.93
2018-12-25T06:14:17.610Z,15.93
2018-12-25T06:15:19.580Z,15.92
2018-12-25T06:16:21.537Z,15.92
2018-12-25T06:17:23.464Z,15.93
2018-12-25T06:18:25.681Z,15.92
2018-12-25T06:19:27.613Z,15.92
2018-12-25T06:20:29.579Z,15.92
2018-12-25T06:21:31.524Z,15.92
2018-12-25T06:22:33.448Z,15.91
2018-12-25T06:23:35.392Z,15.91
2018-12-25T06:24:37.325Z,15.89
2018-12-25T06:25:39.306Z,15.89
2018-12-25T06:26:41.234Z,15.88
2018-12-25T06:27:43.573Z,15.89
2018-12-25T06:28:45.510Z,15.87
2018-12-25T06:29:47.456Z,15.88
2018-12-25T06:30:49.395Z,15.87
2018-12-25T06:31:51.330Z,15.86
2018-12-25T06:32:53.252Z,15.87
2018-12-25T06:33:55.179Z,15.86
2018-12-25T06:34:57.114Z,15.87
2018-12-25T06:35:59.085Z,15.86
2018-12-25T06:37:01.022Z,15.87
2018-12-25T06:38:02.960Z,15.87
2018-12-25T06:39:05.085Z,15.86
2018-12-25T06:40:07.021Z,15.86
2018-12-25T06:41:08.986Z,15.85
2018-12-25T06:42:10.928Z,15.86
2018-12-25T06:43:12.852Z,15.86
2018-12-25T06:44:14.892Z,15.84
2018-12-25T06:45:16.844Z,15.84
2018-12-25T06:46:18.814Z,15.85
2018-12-25T06:47:20.755Z,15.84
2018-12-25T06:48:22.697Z,15.85
2018-12-25T06:49:24.672Z,15.84
2018-12-25T06:50:26.603Z,15.84
2018-12-25T06:51:28.594Z,15.84
2018-12-25T06:52:30.532Z,15.85
2018-12-25T06:53:32.475Z,15.84
2018-12-25T06:54:34.407Z,15.83
2018-12-25T06:55:36.638Z,15.83
2018-12-25T06:56:38.609Z,15.83
2018-12-25T06:57:40.605Z,15.83
2018-12-25T06:58:44.134Z,15.83
2018-12-25T06:59:46.078Z,15.83
2018-12-25T07:00:47.997Z,15.83
2018-12-25T07:01:49.972Z,15.82
2018-12-25T07:02:51.904Z,15.82
2018-12-25T07:03:53.917Z,15.82
2018-12-25T07:04:55.858Z,15.82
2018-12-25T07:05:57.837Z,15.83
2018-12-25T07:06:59.798Z,15.82
2018-12-25T07:08:01.831Z,15.80
2018-12-25T07:09:04.393Z,15.81
2018-12-25T07:10:06.351Z,15.81
2018-12-25T07:11:08.274Z,15.82
2018-12-25T07:12:10.259Z,15.82
2018-12-25T07:13:12.194Z,15.81
2018-12-25T07:14:14.132Z,15.82
2018-12-25T07:15:16.092Z,15.82
2018-12-25T07:16:18.062Z,15.83
2018-12-25T07:17:20.042Z,15.82
2018-12-25T07:18:21.985Z,15.82
2018-12-25T07:19:23.910Z,15.82
2018-12-25T07:20:25.859Z,15.82
2018-12-25T07:21:27.781Z,15.83
2018-12-25T07:22:29.752Z,15.82
2018-12-25T07:23:31.686Z,15.82
2018-12-25T07:24:33.619Z,15.81
2018-12-25T07:25:35.548Z,15.81
2018-12-25T07:26:37.481Z,15.82
2018-12-25T07:27:39.442Z,15.82
2018-12-25T07:28:41.390Z,15.81
2018-12-25T07:29:43.322Z,15.81
2018-12-25T07:30:45.260Z,15.81
2018-12-25T07:31:47.201Z,15.81
2018-12-25T07:32:49.161Z,15.81
2018-12-25T07:33:51.105Z,15.81
2018-12-25T07:34:53.032Z,15.82
2018-12-25T07:35:55.051Z,15.82
2018-12-25T07:36:56.995Z,15.82
2018-12-25T07:37:58.970Z,15.81
2018-12-25T07:39:00.915Z,15.81
2018-12-25T07:40:02.877Z,15.81
2018-12-25T07:41:04.902Z,15.80
2018-12-25T07:42:06.832Z,15.80
2018-12-25T07:43:08.799Z,15.80
2018-12-25T07:44:10.740Z,15.81
2018-12-25T07:45:12.687Z,15.80
2018-12-25T07:46:14.622Z,15.80
2018-12-25T07:47:16.547Z,15.80
2018-12-25T07:48:18.517Z,15.80
2018-12-25T07:49:20.457Z,15.80
2018-12-25T07:50:22.404Z,15.79
2018-12-25T07:51:24.343Z,15.80
2018-12-25T07:52:26.897Z,15.79
2018-12-25T07:53:29.020Z,15.79
2018-12-25T07:54:30.955Z,15.80
2018-12-25T07:55:32.895Z,15.79
2018-12-25T07:56:35.182Z,15.79
2018-12-25T07:57:37.165Z,15.79
2018-12-25T07:58:39.175Z,15.79
2018-12-25T07:59:41.155Z,15.79
2018-12-25T08:00:43.082Z,15.79
2018-12-25T08:01:45.010Z,15.79
2018-12-25T08:02:46.941Z,15.79
2018-12-25T08:03:48.892Z,15.79
2018-12-25T08:04:50.853Z,15.79
2018-12-25T08:05:53.568Z,15.78
2018-12-25T08:06:55.587Z,15.78
2018-12-25T08:07:57.540Z,15.78
2018-12-25T08:08:59.485Z,15.78
2018-12-25T08:10:01.407Z,15.78
2018-12-25T08:11:03.349Z,15.77
2018-12-25T08:12:05.292Z,15.78
2018-12-25T08:13:07.300Z,15.78
2018-12-25T08:14:09.607Z,15.77
2018-12-25T08:15:11.553Z,15.78
2018-12-25T08:16:13.483Z,15.79
2018-12-25T08:17:15.436Z,15.78
2018-12-25T08:18:17.365Z,15.78
2018-12-25T08:19:19.328Z,15.78
2018-12-25T08:20:21.257Z,15.79
2018-12-25T08:21:29.267Z,15.77
2018-12-25T08:22:26.907Z,15.78
2018-12-25T08:23:28.899Z,15.78
2018-12-25T08:24:30.930Z,15.78
2018-12-25T08:25:32.864Z,15.79
2018-12-25T08:26:34.830Z,15.79
2018-12-25T08:27:36.777Z,15.78
2018-12-25T08:28:38.718Z,15.79
2018-12-25T08:29:40.685Z,15.79
2018-12-25T08:30:42.621Z,15.78
2018-12-25T08:31:44.577Z,15.79
2018-12-25T08:32:46.504Z,15.78
2018-12-25T08:33:50.237Z,15.80
2018-12-25T08:34:52.200Z,15.80
2018-12-25T08:35:54.129Z,15.80
2018-12-25T08:36:56.074Z,15.80
2018-12-25T08:37:58.035Z,15.80
2018-12-25T08:38:59.987Z,15.80
2018-12-25T08:40:01.963Z,15.81
2018-12-25T08:41:03.897Z,15.80
2018-12-25T08:42:05.965Z,15.80
2018-12-25T08:43:08.014Z,15.80
2018-12-25T08:44:09.958Z,15.80
2018-12-25T08:45:11.946Z,15.80
2018-12-25T08:46:13.962Z,15.80
2018-12-25T08:47:15.896Z,15.80
2018-12-25T08:48:17.835Z,15.80
2018-12-25T08:49:19.773Z,15.80
2018-12-25T08:50:21.761Z,15.80
2018-12-25T08:51:23.765Z,15.80
2018-12-25T08:52:25.781Z,15.80
2018-12-25T08:53:27.743Z,15.80
2018-12-25T08:54:29.689Z,15.80
2018-12-25T08:55:31.719Z,15.80
2018-12-25T08:56:33.659Z,15.80
2018-12-25T08:57:35.656Z,15.81
2018-12-25T08:58:37.612Z,15.81
2018-12-25T08:59:39.550Z,15.81
2018-12-25T09:00:41.544Z,15.80
2018-12-25T09:01:43.491Z,15.81
2018-12-25T09:02:45.426Z,15.81
2018-12-25T09:03:47.369Z,15.82
2018-12-25T09:04:49.308Z,15.82
2018-12-25T09:05:51.269Z,15.83
2018-12-25T09:06:53.201Z,15.84
2018-12-25T09:07:55.159Z,15.83
2018-12-25T09:08:57.091Z,15.83
2018-12-25T09:09:59.030Z,15.83
2018-12-25T09:11:01.012Z,15.83
2018-12-25T09:12:03.101Z,15.83
2018-12-25T09:13:05.034Z,15.82
2018-12-25T09:14:07.003Z,15.82
2018-12-25T09:15:09.024Z,15.81
2018-12-25T09:16:10.975Z,15.80
2018-12-25T09:17:12.914Z,15.81
2018-12-25T09:18:16.476Z,15.82
2018-12-25T09:19:18.652Z,15.80
2018-12-25T09:20:20.671Z,15.81
2018-12-25T09:21:22.647Z,15.80
2018-12-25T09:22:24.659Z,15.81
2018-12-25T09:23:26.612Z,15.80
2018-12-25T09:24:28.575Z,15.81
2018-12-25T09:25:30.535Z,15.80
2018-12-25T09:26:32.515Z,15.81
2018-12-25T09:27:34.521Z,15.81
2018-12-25T09:28:36.581Z,15.81
2018-12-25T09:29:38.531Z,15.82
2018-12-25T09:30:40.474Z,15.82
2018-12-25T09:31:42.423Z,15.81
2018-12-25T09:32:44.365Z,15.80
2018-12-25T09:33:46.305Z,15.81
2018-12-25T09:34:48.253Z,15.81
2018-12-25T09:35:50.188Z,15.80
2018-12-25T09:36:52.160Z,15.81
2018-12-25T09:37:54.423Z,15.80
2018-12-25T09:38:56.361Z,15.81
2018-12-25T09:39:58.295Z,15.80
2018-12-25T09:41:00.234Z,15.79
2018-12-25T09:42:02.202Z,15.80
2018-12-25T09:43:04.128Z,15.80
2018-12-25T09:44:06.081Z,15.80
2018-12-25T09:45:08.039Z,15.80
2018-12-25T09:46:10.043Z,15.81
2018-12-25T09:47:11.998Z,15.81
2018-12-25T09:48:13.945Z,15.80
2018-12-25T09:49:15.890Z,15.81
2018-12-25T09:50:17.831Z,15.80
2018-12-25T09:51:20.163Z,15.80
2018-12-25T09:52:22.225Z,15.81
2018-12-25T09:53:24.233Z,15.81
2018-12-25T09:54:26.184Z,15.81
2018-12-25T09:55:28.137Z,15.80
2018-12-25T09:56:30.081Z,15.80
2018-12-25T09:57:32.044Z,15.82
2018-12-25T09:58:34.042Z,15.81
2018-12-25T09:59:36.061Z,15.81
2018-12-25T10:00:38.381Z,15.81
2018-12-25T10:01:40.431Z,15.81
2018-12-25T10:02:42.413Z,15.81
2018-12-25T10:03:44.357Z,15.80
2018-12-25T10:04:46.385Z,15.82
2018-12-25T10:05:48.353Z,15.82
2018-12-25T10:06:50.285Z,15.81
2018-12-25T10:07:52.396Z,15.82
2018-12-25T10:08:54.331Z,15.82
2018-12-25T10:09:56.285Z,15.81
2018-12-25T10:10:58.224Z,15.81
2018-12-25T10:12:00.164Z,15.81
2018-12-25T10:13:02.136Z,15.81
2018-12-25T10:14:04.069Z,15.81
2018-12-25T10:15:06.993Z,15.81
2018-12-25T10:16:08.940Z,15.82
2018-12-25T10:17:10.876Z,15.82
2018-12-25T10:18:12.839Z,15.83
2018-12-25T10:19:14.798Z,15.82
2018-12-25T10:20:16.734Z,15.82
2018-12-25T10:21:18.690Z,15.83
2018-12-25T10:22:20.716Z,15.82
2018-12-25T10:23:22.759Z,15.82
2018-12-25T10:24:24.705Z,15.82
2018-12-25T10:25:26.706Z,15.82
2018-12-25T10:26:28.646Z,15.82
2018-12-25T10:27:30.590Z,15.83
2018-12-25T10:28:32.621Z,15.83
2018-12-25T10:29:34.547Z,15.82
2018-12-25T10:30:36.503Z,15.84
2018-12-25T10:31:38.447Z,15.84
2018-12-25T10:32:40.417Z,15.84
2018-12-25T10:33:42.469Z,15.83
2018-12-25T10:34:44.398Z,15.83
2018-12-25T10:35:46.525Z,15.84
2018-12-25T10:36:48.497Z,15.83
2018-12-25T10:37:50.439Z,15.83
2018-12-25T10:38:52.412Z,15.83
2018-12-25T10:39:54.653Z,15.83
2018-12-25T10:40:56.882Z,15.84
2018-12-25T10:41:58.889Z,15.84
2018-12-25T10:43:00.824Z,15.84
2018-12-25T10:44:02.796Z,15.83
2018-12-25T10:45:04.735Z,15.83
2018-12-25T10:46:06.681Z,15.84
2018-12-25T10:47:08.643Z,15.83
2018-12-25T10:48:10.590Z,15.83
2018-12-25T10:49:12.569Z,15.83
2018-12-25T10:50:14.501Z,15.83
2018-12-25T10:51:16.441Z,15.83
2018-12-25T10:52:18.380Z,15.83
2018-12-25T10:53:20.323Z,15.82
2018-12-25T10:54:22.316Z,15.84
2018-12-25T10:55:24.258Z,15.85
2018-12-25T10:56:26.194Z,15.87
2018-12-25T10:57:28.171Z,15.85
2018-12-25T10:58:30.170Z,15.86
2018-12-25T10:59:32.148Z,15.85
2018-12-25T11:00:34.105Z,15.85
2018-12-25T11:01:36.073Z,15.85
2018-12-25T11:02:38.037Z,15.85
2018-12-25T11:03:40.073Z,15.85
2018-12-25T11:04:42.052Z,15.85
2018-12-25T11:05:43.986Z,15.85
2018-12-25T11:06:45.931Z,15.86
2018-12-25T11:07:47.890Z,15.84
2018-12-25T11:08:49.891Z,15.85
2018-12-25T11:09:51.861Z,15.85
2018-12-25T11:10:53.862Z,15.84
2018-12-25T11:11:55.877Z,15.85
2018-12-25T11:12:57.813Z,15.85
2018-12-25T11:13:59.757Z,15.85
2018-12-25T11:15:01.746Z,15.86
2018-12-25T11:16:03.692Z,15.85
2018-12-25T11:17:05.621Z,15.85
2018-12-25T11:18:07.578Z,15.85
2018-12-25T11:19:09.531Z,15.85
2018-12-25T11:20:11.837Z,15.85
2018-12-25T11:21:13.902Z,15.86
2018-12-25T11:22:19.762Z,15.84
2018-12-25T11:23:19.504Z,15.85
2018-12-25T11:24:21.452Z,15.86
2018-12-25T11:25:23.459Z,15.86
2018-12-25T11:26:25.396Z,15.85
2018-12-25T11:27:27.372Z,15.87
2018-12-25T11:28:30.300Z,15.88
2018-12-25T11:29:32.246Z,15.86
2018-12-25T11:30:34.214Z,15.87
2018-12-25T11:31:36.160Z,15.86
2018-12-25T11:32:38.135Z,15.87
2018-12-25T11:33:40.084Z,15.86
2018-12-25T11:34:42.036Z,15.85
2018-12-25T11:35:44.023Z,15.86
2018-12-25T11:36:45.959Z,15.85
2018-12-25T11:37:47.905Z,15.85
2018-12-25T11:38:49.839Z,15.86
2018-12-25T11:39:51.773Z,15.85
2018-12-25T11:40:53.764Z,15.87
2018-12-25T11:41:55.789Z,15.85
2018-12-25T11:42:57.803Z,15.86
2018-12-25T11:43:59.753Z,15.85
2018-12-25T11:45:03.031Z,15.86
2018-12-25T11:46:05.056Z,15.86
2018-12-25T11:47:07.063Z,15.87
2018-12-25T11:48:09.024Z,15.87
2018-12-25T11:49:10.980Z,15.88
2018-12-25T11:50:12.988Z,15.91
2018-12-25T11:51:14.974Z,15.91
2018-12-25T11:52:16.946Z,15.91
2018-12-25T11:53:18.951Z,15.91
2018-12-25T11:54:20.890Z,15.91
2018-12-25T11:55:23.356Z,15.90
2018-12-25T11:56:25.325Z,15.92
2018-12-25T11:57:27.279Z,15.89
2018-12-25T11:58:29.295Z,15.91
2018-12-25T11:59:31.241Z,15.88
2018-12-25T12:00:33.203Z,15.88
2018-12-25T12:01:35.246Z,15.87
2018-12-25T12:02:37.185Z,15.88
2018-12-25T12:03:39.132Z,15.87
2018-12-25T12:04:41.074Z,15.87
2018-12-25T12:05:43.238Z,15.88
2018-12-25T12:06:45.212Z,15.86
2018-12-25T12:07:47.147Z,15.88
2018-12-25T12:08:49.069Z,15.87
2018-12-25T12:09:51.025Z,15.87
2018-12-25T12:10:52.975Z,15.88
2018-12-25T12:11:54.961Z,15.87
2018-12-25T12:12:56.900Z,15.85
2018-12-25T12:13:58.839Z,15.85
2018-12-25T12:15:00.806Z,15.86
2018-12-25T12:16:02.747Z,15.86
2018-12-25T12:17:04.839Z,15.84
2018-12-25T12:18:06.785Z,15.85
2018-12-25T12:19:08.752Z,15.84
2018-12-25T12:20:10.692Z,15.83
2018-12-25T12:21:12.626Z,15.84
2018-12-25T12:22:16.283Z,15.84
2018-12-25T12:23:18.207Z,15.84
2018-12-25T12:24:20.174Z,15.85
2018-12-25T12:25:22.133Z,15.85
2018-12-25T12:26:24.071Z,15.86
2018-12-25T12:27:26.052Z,15.86
2018-12-25T12:28:28.008Z,15.87
2018-12-25T12:29:30.493Z,15.86
2018-12-25T12:30:32.439Z,15.88
2018-12-25T12:31:34.377Z,15.88
2018-12-25T12:32:36.344Z,15.90
2018-12-25T12:33:38.268Z,15.90
2018-12-25T12:34:41.861Z,15.90
2018-12-25T12:35:43.867Z,15.92
2018-12-25T12:36:45.822Z,15.91
2018-12-25T12:37:47.865Z,15.93
2018-12-25T12:38:49.861Z,15.93
2018-12-25T12:39:51.811Z,15.94
2018-12-25T12:40:55.241Z,15.94
2018-12-25T12:41:57.253Z,15.94
2018-12-25T12:42:59.274Z,15.95
2018-12-25T12:44:01.237Z,15.95
2018-12-25T12:45:03.203Z,15.96
2018-12-25T12:46:06.990Z,15.96
2018-12-25T12:47:12.497Z,15.96
2018-12-25T12:48:14.529Z,15.97
2018-12-25T12:49:16.534Z,15.97
2018-12-25T12:50:18.555Z,15.97
2018-12-25T12:51:20.499Z,15.97
2018-12-25T12:52:24.813Z,15.96
2018-12-25T12:53:26.815Z,15.96
2018-12-25T12:54:28.745Z,15.97
2018-12-25T12:55:30.697Z,15.96
2018-12-25T12:56:32.639Z,15.96
2018-12-25T12:57:36.553Z,15.94
2018-12-25T12:58:38.287Z,15.94
2018-12-25T12:59:40.239Z,15.94
2018-12-25T13:00:42.170Z,15.93
2018-12-25T13:01:44.101Z,15.91
2018-12-25T13:02:46.043Z,15.91
2018-12-25T13:03:47.983Z,15.91
2018-12-25T13:04:49.926Z,15.90
2018-12-25T13:05:51.863Z,15.88
2018-12-25T13:06:53.809Z,15.87
2018-12-25T13:07:55.749Z,15.86
2018-12-25T13:08:57.719Z,15.85
2018-12-25T13:09:59.658Z,15.85
2018-12-25T13:11:01.595Z,15.84
2018-12-25T13:12:03.525Z,15.82
2018-12-25T13:13:05.453Z,15.82
2018-12-25T13:14:09.331Z,15.81
2018-12-25T13:15:11.278Z,15.80
2018-12-25T13:16:13.212Z,15.79
2018-12-25T13:17:15.143Z,15.78
2018-12-25T13:18:17.093Z,15.78
2018-12-25T13:19:21.597Z,15.77